Time;durP1;ratioP1;P1;durP2;ratioP2;P2;SDS_P1;SDS_P2;PMS_P1;PMS_P2;Temp;Humidity;BMP_temperature;BMP_pressure;BME280_temperature;BME280_humidity;BME280_pressure;Samples;Min_cycle;Max_cycle;Signal;HPM_P1;HPM_P2
2021/08/28 00:00:38;;;;;;;0.40;0.40;;;23.80;54.50;;;;;;6242527;28;20106;-73
2021/08/28 00:03:38;;;;;;;1.10;0.43;;;23.70;54.50;;;;;;6242682;28;20025;-72
2021/08/28 00:06:39;;;;;;;0.30;0.30;;;23.80;54.60;;;;;;6242418;28;20030;-73
2021/08/28 00:09:39;;;;;;;0.90;0.40;;;23.80;54.60;;;;;;6243317;28;20040;-70
2021/08/28 00:12:40;;;;;;;0.45;0.30;;;23.70;54.50;;;;;;6243576;28;20076;-72
2021/08/28 00:15:41;;;;;;;1.02;0.50;;;23.80;54.60;;;;;;6243746;28;20032;-70
2021/08/28 00:18:42;;;;;;;0.40;0.30;;;23.70;54.50;;;;;;6242008;28;20021;-73
2021/08/28 00:21:42;;;;;;;0.30;0.30;;;23.70;55.20;;;;;;6242138;28;20471;-73
2021/08/28 00:24:43;;;;;;;0.30;0.30;;;23.80;54.60;;;;;;6233164;28;20499;-72
2021/08/28 00:27:44;;;;;;;0.32;0.30;;;23.70;54.60;;;;;;6217171;28;20034;-73
2021/08/28 00:30:44;;;;;;;0.35;0.30;;;23.70;54.60;;;;;;6237062;28;20236;-73
2021/08/28 00:33:45;;;;;;;0.30;0.30;;;23.80;54.60;;;;;;6242043;28;20018;-74
2021/08/28 00:36:45;;;;;;;0.30;0.30;;;23.80;54.70;;;;;;6242118;28;20501;-73
2021/08/28 00:39:46;;;;;;;0.60;0.40;;;23.80;54.70;;;;;;6241354;28;20044;-72
2021/08/28 00:42:53;;;;;;;1.00;0.50;;;23.70;54.60;;;;;;6242762;28;20032;-72
2021/08/28 00:45:54;;;;;;;0.55;0.30;;;23.70;54.60;;;;;;6241477;28;20309;-73
2021/08/28 00:48:55;;;;;;;0.40;0.30;;;23.80;54.70;;;;;;6241381;28;20036;-72
2021/08/28 00:51:55;;;;;;;0.40;0.20;;;23.70;54.60;;;;;;6241289;28;20064;-73
2021/08/28 00:54:56;;;;;;;0.20;0.20;;;23.80;54.70;;;;;;6242567;28;20035;-74
2021/08/28 00:58:00;;;;;;;0.40;0.22;;;23.70;54.60;;;;;;6242535;28;20100;-73
2021/08/28 01:01:10;;;;;;;0.33;0.30;;;23.70;54.70;;;;;;6242074;28;20021;-73
2021/08/28 01:04:15;;;;;;;0.50;0.40;;;23.70;54.60;;;;;;6242349;28;20650;-72
2021/08/28 01:07:42;;;;;;;1.30;0.60;;;23.80;54.70;;;;;;6242586;28;20097;-74
2021/08/28 01:10:52;;;;;;;1.58;0.75;;;23.80;54.70;;;;;;6241856;28;20030;-74
2021/08/28 01:14:09;;;;;;;0.30;0.30;;;23.80;54.70;;;;;;6240869;28;20483;-73
2021/08/28 01:17:13;;;;;;;0.30;0.30;;;23.80;54.70;;;;;;6241831;28;20461;-74
2021/08/28 01:20:36;;;;;;;0.30;0.30;;;23.80;54.70;;;;;;6240678;28;20103;-73
2021/08/28 01:23:38;;;;;;;0.25;0.22;;;23.70;54.70;;;;;;6241896;28;20025;-74
2021/08/28 01:27:00;;;;;;;0.82;0.40;;;23.80;54.80;;;;;;6241834;28;20521;-73
2021/08/28 01:30:02;;;;;;;0.40;0.30;;;23.70;54.70;;;;;;6241544;28;20519;-73
2021/08/28 01:33:03;;;;;;;0.30;0.30;;;23.70;54.60;;;;;;6240745;28;20017;-74
2021/08/28 01:36:04;;;;;;;0.40;0.30;;;23.70;55.40;;;;;;6232305;28;20594;-73
2021/08/28 01:39:06;;;;;;;0.30;0.22;;;23.70;54.70;;;;;;6217216;28;20083;-72
2021/08/28 01:42:08;;;;;;;0.40;0.25;;;23.80;54.80;;;;;;6235180;28;20426;-72
2021/08/28 01:45:11;;;;;;;0.30;0.30;;;23.80;54.80;;;;;;6240011;28;20095;-74
2021/08/28 01:48:14;;;;;;;0.20;0.20;;;23.70;54.80;;;;;;6241428;28;20482;-74
2021/08/28 01:51:15;;;;;;;0.20;0.20;;;23.70;54.70;;;;;;6241220;28;20021;-73
2021/08/28 01:54:16;;;;;;;0.20;0.20;;;23.70;54.80;;;;;;6241735;28;20037;-73
2021/08/28 01:57:17;;;;;;;0.60;0.30;;;23.80;54.90;;;;;;6240851;28;20046;-73
2021/08/28 02:00:18;;;;;;;0.38;0.38;;;23.70;54.80;;;;;;6239758;28;20079;-74
2021/08/28 02:03:18;;;;;;;0.30;0.30;;;23.80;55.00;;;;;;6239975;28;20167;-73
2021/08/28 02:06:44;;;;;;;0.20;0.20;;;23.70;55.50;;;;;;6241206;28;20116;-74
2021/08/28 02:10:07;;;;;;;0.20;0.20;;;23.70;54.80;;;;;;6240983;28;20036;-73
2021/08/28 02:13:29;;;;;;;0.40;0.30;;;23.80;54.90;;;;;;6239630;28;20025;-73
2021/08/28 02:16:33;;;;;;;0.28;0.25;;;23.80;54.90;;;;;;6239530;28;20523;-74
2021/08/28 02:19:35;;;;;;;0.30;0.30;;;23.80;54.90;;;;;;6241484;28;20017;-73
2021/08/28 02:22:42;;;;;;;0.35;0.22;;;23.80;55.00;;;;;;6238991;28;20112;-74
2021/08/28 02:25:48;;;;;;;0.35;0.35;;;23.80;54.90;;;;;;6241358;28;20041;-73
2021/08/28 02:29:01;;;;;;;0.20;0.20;;;23.70;54.90;;;;;;6239980;28;20136;-73
2021/08/28 02:32:03;;;;;;;0.20;0.20;;;23.70;54.90;;;;;;6240601;28;20028;-72
2021/08/28 02:35:05;;;;;;;0.25;0.25;;;23.80;54.90;;;;;;6239824;28;20025;-73
2021/08/28 02:38:08;;;;;;;0.20;0.20;;;23.70;54.80;;;;;;6240349;28;20025;-73
2021/08/28 02:41:09;;;;;;;0.20;0.20;;;23.70;54.90;;;;;;6239268;28;20029;-73
2021/08/28 02:44:11;;;;;;;0.20;0.20;;;23.70;54.90;;;;;;6240568;28;20041;-74
2021/08/28 02:47:13;;;;;;;0.40;0.30;;;23.80;55.00;;;;;;6239396;28;20045;-74
2021/08/28 02:50:15;;;;;;;0.43;0.38;;;23.70;54.90;;;;;;6238427;28;20514;-72
2021/08/28 02:53:18;;;;;;;0.32;0.20;;;23.70;54.90;;;;;;6229422;28;20064;-73
2021/08/28 02:56:24;;;;;;;0.20;0.20;;;23.70;54.90;;;;;;6238712;28;20049;-72
2021/08/28 02:59:25;;;;;;;0.20;0.20;;;23.70;54.90;;;;;;6240442;28;20029;-72
2021/08/28 03:02:27;;;;;;;0.80;0.30;;;23.80;55.00;;;;;;6239905;28;20030;-73
2021/08/28 03:05:27;;;;;;;0.20;0.20;;;23.70;54.90;;;;;;6240756;28;20029;-73
2021/08/28 03:08:28;;;;;;;0.30;0.30;;;23.70;54.90;;;;;;6238879;28;20072;-72
2021/08/28 03:11:29;;;;;;;0.30;0.30;;;23.70;54.90;;;;;;6240419;28;20026;-74
2021/08/28 03:14:30;;;;;;;0.32;0.22;;;23.70;55.00;;;;;;6240519;28;20056;-74
2021/08/28 03:17:31;;;;;;;1.10;0.30;;;23.80;55.10;;;;;;6238861;28;20025;-73
2021/08/28 03:20:32;;;;;;;0.20;0.20;;;23.80;55.10;;;;;;6240380;28;20036;-73
2021/08/28 03:23:35;;;;;;;0.55;0.32;;;23.70;55.00;;;;;;6240021;28;20100;-74
2021/08/28 03:26:36;;;;;;;0.82;0.45;;;23.70;55.00;;;;;;6240495;28;20044;-72
2021/08/28 03:29:37;;;;;;;0.20;0.20;;;23.70;55.00;;;;;;6238130;28;20041;-73
2021/08/28 03:32:40;;;;;;;0.30;0.30;;;23.70;55.00;;;;;;6239982;28;20014;-74
2021/08/28 03:35:42;;;;;;;0.38;0.30;;;23.70;55.00;;;;;;6240424;28;20040;-73
2021/08/28 03:38:43;;;;;;;0.20;0.20;;;23.70;55.00;;;;;;6238525;28;20141;-73
2021/08/28 03:41:44;;;;;;;0.38;0.30;;;23.70;55.00;;;;;;6241051;28;20721;-73
2021/08/28 03:44:44;;;;;;;0.40;0.30;;;23.70;55.00;;;;;;6242948;28;20029;-74
2021/08/28 03:47:46;;;;;;;0.63;0.30;;;23.70;55.00;;;;;;6244072;28;20021;-73
2021/08/28 03:50:47;;;;;;;0.30;0.30;;;23.70;55.00;;;;;;6241996;28;20028;-74
2021/08/28 03:53:48;;;;;;;0.25;0.25;;;23.70;54.90;;;;;;6242810;28;20034;-72
2021/08/28 03:56:49;;;;;;;0.45;0.40;;;23.70;55.00;;;;;;6244344;28;20415;-73
2021/08/28 04:00:39;;;;;;;0.50;0.30;;;23.70;55.00;;;;;;6243581;28;20061;-73
2021/08/28 04:03:40;;;;;;;0.32;0.30;;;23.70;55.00;;;;;;6242545;28;20252;-73
2021/08/28 04:06:40;;;;;;;0.47;0.30;;;23.80;55.00;;;;;;6242940;28;20502;-70
2021/08/28 04:09:41;;;;;;;0.20;0.20;;;23.70;55.00;;;;;;6242462;28;20032;-71
2021/08/28 04:12:41;;;;;;;0.55;0.30;;;23.70;55.00;;;;;;6242529;28;20021;-73
2021/08/28 04:15:42;;;;;;;0.35;0.20;;;23.70;55.00;;;;;;6220771;28;20026;-74
2021/08/28 04:18:43;;;;;;;0.20;0.20;;;23.70;55.00;;;;;;6221920;28;20499;-71
2021/08/28 04:21:43;;;;;;;0.20;0.20;;;23.70;55.00;;;;;;6243516;28;20036;-71
2021/08/28 04:24:44;;;;;;;0.20;0.20;;;23.70;55.00;;;;;;6241928;28;20422;-73
2021/08/28 04:27:44;;;;;;;0.20;0.20;;;23.70;55.10;;;;;;6242876;28;20556;-71
2021/08/28 04:30:45;;;;;;;0.30;0.30;;;23.70;55.10;;;;;;6241665;28;20044;-73
2021/08/28 04:33:45;;;;;;;0.32;0.28;;;23.80;55.10;;;;;;6242220;28;20021;-72
2021/08/28 04:36:46;;;;;;;0.45;0.15;;;23.70;55.10;;;;;;6241873;28;20017;-74
2021/08/28 04:39:46;;;;;;;0.30;0.30;;;23.70;55.10;;;;;;6241938;28;20017;-74
2021/08/28 04:42:47;;;;;;;0.30;0.30;;;23.70;55.00;;;;;;6243041;28;20423;-72
2021/08/28 04:45:47;;;;;;;0.20;0.20;;;23.70;55.10;;;;;;6243170;28;20076;-73
2021/08/28 04:48:48;;;;;;;0.80;0.20;;;23.70;55.10;;;;;;6241335;28;20049;-73
2021/08/28 04:51:48;;;;;;;0.20;0.20;;;23.80;55.20;;;;;;6242178;28;20021;-73
2021/08/28 04:54:49;;;;;;;0.28;0.20;;;23.70;55.10;;;;;;6240903;28;20119;-74
2021/08/28 04:57:49;;;;;;;1.08;0.20;;;23.70;55.10;;;;;;6241464;28;20049;-74
2021/08/28 05:00:50;;;;;;;0.50;0.20;;;23.70;55.10;;;;;;6240395;28;20068;-72
2021/08/28 05:03:50;;;;;;;0.30;0.30;;;23.80;55.20;;;;;;6220928;28;20032;-74
2021/08/28 05:06:51;;;;;;;0.20;0.20;;;23.80;55.20;;;;;;6241489;28;20036;-74
2021/08/28 05:09:52;;;;;;;0.45;0.22;;;23.70;55.10;;;;;;6242083;28;20423;-71
2021/08/28 05:12:53;;;;;;;0.20;0.20;;;23.70;55.10;;;;;;6242449;28;20053;-73
2021/08/28 05:15:55;;;;;;;0.20;0.20;;;23.70;55.20;;;;;;6233143;28;20029;-74
2021/08/28 05:18:55;;;;;;;1.27;0.30;;;23.80;55.20;;;;;;6217713;28;20026;-74
2021/08/28 05:21:56;;;;;;;0.20;0.20;;;23.70;55.10;;;;;;6234265;28;20403;-74
2021/08/28 05:24:56;;;;;;;0.82;0.30;;;23.70;55.20;;;;;;6242445;28;20479;-72
2021/08/28 05:27:57;;;;;;;0.47;0.40;;;23.80;55.20;;;;;;6240533;28;20423;-72
2021/08/28 05:30:58;;;;;;;1.05;0.40;;;23.80;55.20;;;;;;6241521;28;20096;-72
2021/08/28 05:33:59;;;;;;;5.30;0.35;;;23.80;55.10;;;;;;6240202;28;20537;-71
2021/08/28 05:36:59;;;;;;;2.40;0.30;;;23.80;55.10;;;;;;6241243;28;20056;-72
2021/08/28 05:40:00;;;;;;;1.23;0.22;;;23.80;55.10;;;;;;6240482;28;20496;-72
2021/08/28 05:43:01;;;;;;;0.28;0.28;;;23.80;55.10;;;;;;6239929;28;20392;-72
2021/08/28 05:46:03;;;;;;;1.10;0.30;;;23.80;55.10;;;;;;6240182;28;20026;-72
2021/08/28 05:49:03;;;;;;;0.80;0.40;;;23.80;55.10;;;;;;6240196;28;20489;-71
2021/08/28 05:52:04;;;;;;;0.82;0.30;;;23.70;55.00;;;;;;6239805;28;20030;-72
2021/08/28 05:55:10;;;;;;;2.35;0.30;;;23.80;55.10;;;;;;6241234;28;20030;-72
2021/08/28 05:58:10;;;;;;;3.63;0.47;;;23.80;55.10;;;;;;6241024;28;20046;-71
2021/08/28 06:01:11;;;;;;;0.80;0.30;;;23.80;55.10;;;;;;6240079;28;20056;-72
2021/08/28 06:04:11;;;;;;;2.10;0.30;;;23.80;55.10;;;;;;6240051;28;20556;-72
2021/08/28 06:07:13;;;;;;;1.40;0.40;;;23.70;54.90;;;;;;6231722;28;20029;-72
2021/08/28 06:10:14;;;;;;;1.90;0.30;;;23.70;55.00;;;;;;6215395;28;20022;-71
2021/08/28 06:13:15;;;;;;;0.50;0.30;;;23.70;54.90;;;;;;6244955;28;20080;-71
2021/08/28 06:16:15;;;;;;;0.32;0.30;;;23.80;55.10;;;;;;6239916;28;20421;-72
2021/08/28 06:19:16;;;;;;;0.28;0.28;;;23.80;55.10;;;;;;6239727;28;20388;-71
2021/08/28 06:22:18;;;;;;;1.77;0.50;;;23.80;55.10;;;;;;6239454;28;20033;-72
2021/08/28 06:25:18;;;;;;;2.00;0.40;;;23.70;55.00;;;;;;6239780;28;20692;-72
2021/08/28 06:28:19;;;;;;;0.82;0.30;;;23.80;55.00;;;;;;6241287;28;20054;-72
2021/08/28 06:31:19;;;;;;;0.98;0.32;;;23.80;55.10;;;;;;6240447;28;20025;-71
2021/08/28 06:34:20;;;;;;;0.45;0.30;;;23.80;55.00;;;;;;6239830;28;20083;-72
2021/08/28 06:37:20;;;;;;;1.40;0.40;;;23.70;55.00;;;;;;6240461;28;20069;-72
2021/08/28 06:40:21;;;;;;;0.20;0.20;;;23.80;55.10;;;;;;6239561;28;20372;-72
2021/08/28 06:43:21;;;;;;;0.30;0.30;;;23.70;55.00;;;;;;6239220;28;20117;-72
2021/08/28 06:46:23;;;;;;;1.08;0.50;;;23.70;55.70;;;;;;6239021;28;20486;-72
2021/08/28 06:49:24;;;;;;;0.30;0.30;;;23.70;55.00;;;;;;6239473;28;20379;-72
2021/08/28 06:52:25;;;;;;;1.48;0.43;;;23.70;55.00;;;;;;6239240;28;20029;-71
2021/08/28 06:55:25;;;;;;;0.30;0.20;;;23.70;55.00;;;;;;6240677;28;20044;-72
2021/08/28 06:58:26;;;;;;;4.10;0.73;;;23.80;55.10;;;;;;6238494;28;20141;-71
2021/08/28 07:01:27;;;;;;;0.17;0.17;;;23.70;55.00;;;;;;6239214;28;20061;-72
2021/08/28 07:04:27;;;;;;;0.82;0.20;;;23.70;55.00;;;;;;6238636;28;20029;-70
2021/08/28 07:07:30;;;;;;;0.47;0.40;;;23.80;55.10;;;;;;6235335;28;20086;-72
2021/08/28 07:10:31;;;;;;;0.45;0.30;;;23.70;55.00;;;;;;6240103;28;20503;-72
2021/08/28 07:13:31;;;;;;;1.67;0.20;;;23.70;55.00;;;;;;6230772;28;20243;-72
2021/08/28 07:16:32;;;;;;;0.40;0.40;;;23.80;55.20;;;;;;6218326;28;20037;-72
2021/08/28 07:19:32;;;;;;;0.38;0.20;;;23.70;55.00;;;;;;6239913;28;20025;-70
2021/08/28 07:22:33;;;;;;;0.15;0.15;;;23.80;55.10;;;;;;6243329;28;20138;-71
2021/08/28 07:25:37;;;;;;;0.20;0.20;;;23.70;55.00;;;;;;6243820;28;20026;-72
2021/08/28 07:28:37;;;;;;;0.30;0.30;;;23.70;55.60;;;;;;6235008;28;20531;-72
2021/08/28 07:31:38;;;;;;;0.20;0.20;;;23.70;55.00;;;;;;6236528;28;20083;-71
2021/08/28 07:34:39;;;;;;;0.15;0.10;;;23.70;55.00;;;;;;6237665;28;20431;-72
2021/08/28 07:37:39;;;;;;;0.38;0.20;;;23.70;55.00;;;;;;6243286;28;20406;-72
2021/08/28 07:40:40;;;;;;;0.30;0.30;;;23.70;55.10;;;;;;6242861;28;20037;-72
2021/08/28 07:43:40;;;;;;;0.32;0.30;;;23.70;55.00;;;;;;6243240;28;20049;-72
2021/08/28 07:46:41;;;;;;;1.52;0.28;;;23.70;55.10;;;;;;6243094;28;20026;-70
2021/08/28 07:49:42;;;;;;;0.20;0.20;;;23.70;55.00;;;;;;6242908;28;20021;-72
2021/08/28 07:52:43;;;;;;;0.43;0.25;;;23.70;55.10;;;;;;6242737;28;20630;-72
2021/08/28 07:55:43;;;;;;;0.22;0.22;;;23.70;55.00;;;;;;6218176;28;20041;-72
2021/08/28 07:58:44;;;;;;;0.30;0.20;;;23.70;55.10;;;;;;6225632;28;20025;-72
2021/08/28 08:01:44;;;;;;;0.20;0.20;;;23.70;55.00;;;;;;6242907;28;20033;-72
2021/08/28 08:04:45;;;;;;;0.20;0.20;;;23.70;55.00;;;;;;6241768;28;20357;-72
2021/08/28 08:07:45;;;;;;;0.40;0.20;;;23.70;55.10;;;;;;6242650;28;20033;-72
2021/08/28 08:10:46;;;;;;;0.35;0.35;;;23.70;55.00;;;;;;6242045;28;20025;-72
2021/08/28 08:13:46;;;;;;;0.30;0.30;;;23.70;55.00;;;;;;6238803;28;20026;-72
2021/08/28 08:16:47;;;;;;;0.20;0.20;;;23.70;55.00;;;;;;6235924;28;20045;-72
2021/08/28 08:19:47;;;;;;;0.50;0.30;;;23.70;55.00;;;;;;6242440;28;20025;-72
2021/08/28 08:22:48;;;;;;;0.20;0.20;;;23.70;55.10;;;;;;6243403;28;20021;-72
2021/08/28 08:25:49;;;;;;;0.30;0.30;;;23.70;55.00;;;;;;6243298;28;20025;-72
2021/08/28 08:28:49;;;;;;;1.45;0.15;;;23.70;55.00;;;;;;6240823;28;20029;-71
2021/08/28 08:31:53;;;;;;;0.20;0.20;;;23.80;55.10;;;;;;6242166;28;20017;-72
2021/08/28 08:34:53;;;;;;;0.38;0.30;;;23.70;55.10;;;;;;6243038;28;20018;-72
2021/08/28 08:37:57;;;;;;;0.20;0.20;;;23.70;55.10;;;;;;6241907;28;20025;-70
2021/08/28 08:40:58;;;;;;;0.68;0.20;;;23.70;55.10;;;;;;6243239;28;20021;-71
2021/08/28 08:44:00;;;;;;;0.50;0.20;;;23.80;55.10;;;;;;6241462;28;20508;-74
2021/08/28 08:47:00;;;;;;;1.05;0.32;;;23.70;55.10;;;;;;6243234;28;20024;-71
2021/08/28 08:50:02;;;;;;;0.28;0.28;;;23.70;55.10;;;;;;6241515;28;20375;-72
2021/08/28 08:53:04;;;;;;;0.52;0.38;;;23.70;55.10;;;;;;6241594;28;20022;-72
2021/08/28 08:56:06;;;;;;;0.30;0.30;;;23.70;55.10;;;;;;6241179;28;20430;-71
2021/08/28 08:59:07;;;;;;;0.10;0.10;;;23.70;55.10;;;;;;6241692;28;20076;-72
2021/08/28 09:02:07;;;;;;;0.55;0.40;;;23.80;55.10;;;;;;6241509;28;20502;-70
2021/08/28 09:05:08;;;;;;;0.40;0.30;;;23.70;55.10;;;;;;6242188;28;20029;-72
2021/08/28 09:08:09;;;;;;;0.20;0.20;;;23.70;55.10;;;;;;6241397;28;20586;-72
2021/08/28 09:11:30;;;;;;;0.30;0.30;;;23.70;55.00;;;;;;6225611;28;20025;-71
2021/08/28 09:14:31;;;;;;;0.20;0.20;;;23.70;55.10;;;;;;6217032;28;20054;-71
2021/08/28 09:17:32;;;;;;;0.17;0.17;;;23.80;55.10;;;;;;6240963;28;20087;-72
2021/08/28 09:20:32;;;;;;;0.30;0.30;;;23.70;55.10;;;;;;6241943;28;20037;-72
2021/08/28 09:23:38;;;;;;;0.43;0.20;;;23.70;55.10;;;;;;6240760;28;20131;-72
2021/08/28 09:26:44;;;;;;;0.50;0.20;;;23.70;55.10;;;;;;6232616;28;20034;-71
2021/08/28 09:29:45;;;;;;;0.40;0.40;;;23.70;55.10;;;;;;6233081;28;20033;-73
2021/08/28 09:32:46;;;;;;;0.30;0.30;;;23.80;55.20;;;;;;6240704;28;20022;-71
2021/08/28 09:35:49;;;;;;;0.28;0.28;;;23.70;55.10;;;;;;6241713;28;20087;-70
2021/08/28 09:38:49;;;;;;;0.28;0.28;;;23.70;55.10;;;;;;6241767;28;20475;-71
2021/08/28 09:41:54;;;;;;;0.20;0.20;;;23.70;55.10;;;;;;6224026;28;20037;-72
2021/08/28 09:44:55;;;;;;;0.35;0.30;;;23.70;55.10;;;;;;6216908;28;20037;-72
2021/08/28 09:47:56;;;;;;;0.20;0.20;;;23.70;55.10;;;;;;6215723;28;20025;-71
2021/08/28 09:50:59;;;;;;;0.40;0.30;;;23.70;55.10;;;;;;6224200;28;20116;-72
2021/08/28 09:54:01;;;;;;;0.20;0.20;;;23.70;55.10;;;;;;6241702;28;20033;-71
2021/08/28 09:57:02;;;;;;;0.40;0.35;;;23.80;55.20;;;;;;6240941;28;20443;-72
2021/08/28 10:00:07;;;;;;;0.28;0.22;;;23.70;55.80;;;;;;6241256;28;20594;-72
2021/08/28 10:03:07;;;;;;;0.30;0.30;;;23.70;55.20;;;;;;6241176;28;20109;-71
2021/08/28 10:06:08;;;;;;;0.22;0.22;;;23.70;55.10;;;;;;6238753;28;20090;-72
2021/08/28 10:09:09;;;;;;;0.20;0.20;;;23.70;55.10;;;;;;6239910;28;20025;-72
2021/08/28 10:12:10;;;;;;;0.45;0.22;;;23.70;55.20;;;;;;6240994;28;20108;-71
2021/08/28 10:15:11;;;;;;;0.40;0.40;;;23.70;55.10;;;;;;6239685;28;20036;-72
2021/08/28 10:18:13;;;;;;;0.20;0.20;;;23.70;55.10;;;;;;6240834;28;20544;-72
2021/08/28 10:21:14;;;;;;;0.20;0.20;;;23.70;55.20;;;;;;6239482;28;20037;-72
2021/08/28 10:24:15;;;;;;;0.20;0.20;;;23.80;55.30;;;;;;6239521;28;20033;-72
2021/08/28 10:27:16;;;;;;;0.30;0.30;;;23.70;55.10;;;;;;6239466;28;20597;-71
2021/08/28 10:30:19;;;;;;;0.20;0.20;;;23.70;55.20;;;;;;6239590;28;20022;-71
2021/08/28 10:33:20;;;;;;;0.22;0.22;;;23.70;55.20;;;;;;6240503;28;20022;-72
2021/08/28 10:36:21;;;;;;;0.20;0.20;;;23.70;55.20;;;;;;6239499;28;20080;-72
2021/08/28 10:39:22;;;;;;;0.35;0.30;;;23.70;55.10;;;;;;6240273;28;20029;-72
2021/08/28 10:42:25;;;;;;;0.43;0.32;;;23.80;55.20;;;;;;6230932;28;20030;-71
2021/08/28 10:45:32;;;;;;;0.22;0.20;;;23.70;55.10;;;;;;6234203;28;20171;-72
2021/08/28 10:48:52;;;;;;;0.30;0.30;;;23.70;55.20;;;;;;6239726;28;20052;-72
2021/08/28 10:51:55;;;;;;;0.30;0.30;;;23.70;55.10;;;;;;6245680;28;20113;-71
2021/08/28 10:55:04;;;;;;;0.40;0.30;;;23.70;55.20;;;;;;6244804;28;20080;-71
2021/08/28 10:58:14;;;;;;;0.30;0.22;;;23.70;55.10;;;;;;6244645;28;20099;-71
2021/08/28 11:01:18;;;;;;;0.20;0.17;;;23.70;55.20;;;;;;6244675;28;20086;-72
2021/08/28 11:04:37;;;;;;;0.30;0.28;;;23.70;55.20;;;;;;6245520;28;20053;-72
2021/08/28 11:07:44;;;;;;;0.30;0.20;;;23.70;55.20;;;;;;6246375;28;20077;-71
2021/08/28 11:11:23;;;;;;;0.20;0.20;;;23.70;55.20;;;;;;6245772;28;20025;-71
2021/08/28 11:14:44;;;;;;;0.65;0.32;;;23.70;55.30;;;;;;6242585;28;20037;-72
2021/08/28 11:17:46;;;;;;;0.40;0.30;;;23.70;55.20;;;;;;6245911;28;20515;-71
2021/08/28 11:20:50;;;;;;;0.20;0.20;;;23.70;55.20;;;;;;6244034;28;20033;-72
2021/08/28 11:23:52;;;;;;;0.20;0.20;;;23.70;55.20;;;;;;6244996;28;20483;-71
2021/08/28 11:26:55;;;;;;;0.20;0.20;;;23.70;55.20;;;;;;6243797;28;20018;-71
2021/08/28 11:29:55;;;;;;;0.20;0.20;;;23.70;55.20;;;;;;6242900;28;20040;-71
2021/08/28 11:33:00;;;;;;;0.20;0.20;;;23.70;55.20;;;;;;6244801;28;20053;-71
2021/08/28 11:36:04;;;;;;;;;;;23.70;55.30;;;;;;6244026;28;20029;-71
2021/08/28 11:39:21;;;;;;;0.30;0.30;;;23.70;55.20;;;;;;6244450;28;19909;-71
2021/08/28 11:42:22;;;;;;;0.25;0.20;;;23.70;55.20;;;;;;6243378;28;20121;-71
2021/08/28 11:45:36;;;;;;;0.43;0.30;;;23.70;55.30;;;;;;6244821;28;20430;-71
2021/08/28 11:48:39;;;;;;;0.37;0.30;;;23.70;55.30;;;;;;6243551;28;20025;-72
2021/08/28 11:51:40;;;;;;;0.20;0.20;;;23.70;55.30;;;;;;6243171;28;20146;-71
2021/08/28 11:54:43;;;;;;;0.20;0.20;;;23.70;55.30;;;;;;6243084;28;20025;-72
2021/08/28 11:58:04;;;;;;;0.20;0.20;;;23.70;55.20;;;;;;6243994;28;20049;-71
2021/08/28 12:01:05;;;;;;;0.30;0.30;;;23.70;55.20;;;;;;6242422;28;20049;-71
2021/08/28 12:04:14;;;;;;;0.10;0.10;;;23.70;55.20;;;;;;6242709;28;20065;-71
2021/08/28 12:07:15;;;;;;;0.30;0.30;;;23.70;55.30;;;;;;6242609;28;20033;-71
2021/08/28 12:10:16;;;;;;;0.25;0.25;;;23.70;55.30;;;;;;6242696;28;20446;-71
2021/08/28 12:13:17;;;;;;;0.30;0.30;;;23.70;55.20;;;;;;6242594;28;20461;-71
2021/08/28 12:16:25;;;;;;;0.50;0.30;;;23.70;55.20;;;;;;6244092;28;20038;-71
2021/08/28 12:19:29;;;;;;;0.20;0.20;;;23.70;55.30;;;;;;6243517;28;20029;-72
2021/08/28 12:22:30;;;;;;;0.28;0.28;;;23.70;55.30;;;;;;6242314;28;20018;-71
2021/08/28 12:25:32;;;;;;;0.20;0.20;;;23.70;55.30;;;;;;6241963;28;20087;-71
2021/08/28 12:28:32;;;;;;;0.38;0.20;;;23.70;55.30;;;;;;6242207;28;20527;-71
2021/08/28 12:31:34;;;;;;;0.20;0.20;;;23.70;55.40;;;;;;6243617;28;20055;-71
2021/08/28 12:34:37;;;;;;;0.20;0.20;;;23.70;55.40;;;;;;6242311;28;20060;-72
2021/08/28 12:37:38;;;;;;;0.30;0.30;;;23.70;55.40;;;;;;6243544;28;20505;-71
2021/08/28 12:40:39;;;;;;;0.20;0.20;;;23.70;55.40;;;;;;6241734;28;20052;-72
2021/08/28 12:43:39;;;;;;;0.28;0.28;;;23.70;55.40;;;;;;6243298;28;20029;-71
2021/08/28 12:46:41;;;;;;;0.30;0.30;;;23.70;55.40;;;;;;6242820;28;20041;-71
2021/08/28 12:49:41;;;;;;;0.43;0.30;;;23.70;55.50;;;;;;6241708;28;20438;-71
2021/08/28 12:52:45;;;;;;;0.20;0.20;;;23.70;55.50;;;;;;6241210;28;20124;-71
2021/08/28 12:55:49;;;;;;;0.40;0.30;;;23.70;55.50;;;;;;6241141;28;20032;-71
2021/08/28 12:58:49;;;;;;;0.30;0.30;;;23.70;55.50;;;;;;6242945;28;20332;-71
2021/08/28 13:01:52;;;;;;;0.30;0.30;;;23.70;55.50;;;;;;6242618;28;20510;-71
2021/08/28 13:04:53;;;;;;;0.47;0.40;;;23.70;55.50;;;;;;6240479;28;20537;-71
2021/08/28 13:07:57;;;;;;;0.40;0.30;;;23.70;55.50;;;;;;6242608;28;20081;-71
2021/08/28 13:11:15;;;;;;;0.30;0.30;;;23.70;55.50;;;;;;6242664;28;20027;-71
2021/08/28 13:14:16;;;;;;;0.25;0.25;;;23.70;55.60;;;;;;6231797;28;20118;-72
2021/08/28 13:17:27;;;;;;;0.30;0.30;;;23.70;55.60;;;;;;6236636;28;20029;-71
2021/08/28 13:20:30;;;;;;;0.52;0.40;;;23.70;55.60;;;;;;6241914;28;20021;-71
2021/08/28 13:23:31;;;;;;;0.50;0.40;;;23.70;55.60;;;;;;6241093;28;20026;-71
2021/08/28 13:26:32;;;;;;;0.30;0.25;;;23.70;55.60;;;;;;6240897;28;20029;-71
2021/08/28 13:29:35;;;;;;;0.28;0.20;;;23.70;55.60;;;;;;6242200;28;20052;-71
2021/08/28 13:32:36;;;;;;;0.30;0.30;;;23.70;55.60;;;;;;6241808;28;20028;-71
2021/08/28 13:35:39;;;;;;;0.15;0.15;;;23.70;55.60;;;;;;6241831;28;20021;-71
2021/08/28 13:38:39;;;;;;;0.30;0.30;;;23.70;55.60;;;;;;6241997;28;20040;-71
2021/08/28 13:41:40;;;;;;;0.30;0.30;;;23.70;55.60;;;;;;6240616;28;20029;-71
2021/08/28 13:44:40;;;;;;;0.25;0.25;;;23.70;55.60;;;;;;6240419;28;20629;-71
2021/08/28 13:47:41;;;;;;;0.40;0.28;;;23.70;55.60;;;;;;6241637;28;20030;-71
2021/08/28 13:50:42;;;;;;;0.75;0.40;;;23.70;55.60;;;;;;6241510;28;20033;-72
2021/08/28 13:53:42;;;;;;;0.30;0.30;;;23.70;55.60;;;;;;6240181;28;20025;-71
2021/08/28 13:56:43;;;;;;;0.25;0.20;;;23.70;55.60;;;;;;6242041;28;20057;-71
2021/08/28 13:59:43;;;;;;;0.20;0.20;;;23.70;55.60;;;;;;6239902;28;20033;-71
2021/08/28 14:02:45;;;;;;;0.30;0.30;;;23.70;55.70;;;;;;6240025;28;20037;-71
2021/08/28 14:05:46;;;;;;;0.30;0.30;;;23.70;55.60;;;;;;6240848;28;20030;-71
2021/08/28 14:08:47;;;;;;;0.25;0.25;;;23.70;55.70;;;;;;6240201;28;20383;-71
2021/08/28 14:11:47;;;;;;;0.20;0.20;;;23.70;55.70;;;;;;6241526;28;20030;-71
2021/08/28 14:14:48;;;;;;;0.65;0.10;;;23.70;55.70;;;;;;6230107;28;20029;-72
2021/08/28 14:17:49;;;;;;;0.20;0.20;;;23.70;55.70;;;;;;6232186;28;20032;-71
2021/08/28 14:20:49;;;;;;;0.30;0.30;;;23.70;55.70;;;;;;6241216;28;20026;-71
2021/08/28 14:23:51;;;;;;;0.40;0.30;;;23.70;55.70;;;;;;6241006;28;20175;-71
2021/08/28 14:26:52;;;;;;;0.35;0.32;;;23.70;55.80;;;;;;6239002;28;20029;-71
2021/08/28 14:29:53;;;;;;;0.52;0.40;;;23.70;55.70;;;;;;6239747;28;20030;-71
2021/08/28 14:32:53;;;;;;;0.20;0.20;;;23.70;55.80;;;;;;6240864;28;20120;-71
2021/08/28 14:35:54;;;;;;;0.28;0.28;;;23.70;55.80;;;;;;6241150;28;20314;-71
2021/08/28 14:38:55;;;;;;;0.25;0.25;;;23.70;55.80;;;;;;6239525;28;20086;-71
2021/08/28 14:41:55;;;;;;;0.15;0.15;;;23.70;55.80;;;;;;6239348;28;20112;-71
2021/08/28 14:44:56;;;;;;;0.30;0.30;;;23.70;55.70;;;;;;6232015;28;20056;-71
2021/08/28 14:47:59;;;;;;;0.30;0.30;;;23.70;55.70;;;;;;6227216;28;20018;-71
2021/08/28 14:51:00;;;;;;;0.30;0.30;;;23.70;55.80;;;;;;6239772;28;20112;-71
2021/08/28 14:54:00;;;;;;;0.20;0.20;;;23.70;55.80;;;;;;6240824;28;20025;-71
2021/08/28 14:57:01;;;;;;;0.30;0.22;;;23.70;55.70;;;;;;6240765;28;20561;-71
2021/08/28 15:00:03;;;;;;;0.32;0.30;;;23.70;55.80;;;;;;6239413;28;20439;-71
2021/08/28 15:03:04;;;;;;;0.30;0.25;;;23.70;55.80;;;;;;6240502;28;20430;-71
2021/08/28 15:06:06;;;;;;;0.20;0.20;;;23.70;55.80;;;;;;6239292;28;20126;-71
2021/08/28 15:09:07;;;;;;;0.20;0.20;;;23.70;55.80;;;;;;6239641;28;20021;-71
2021/08/28 15:12:08;;;;;;;0.30;0.30;;;23.70;55.80;;;;;;6240248;28;20108;-71
2021/08/28 15:15:09;;;;;;;0.20;0.20;;;23.70;55.80;;;;;;6237294;28;20076;-71
2021/08/28 15:18:09;;;;;;;0.30;0.30;;;23.70;55.80;;;;;;6240142;28;20056;-71
2021/08/28 15:21:10;;;;;;;0.20;0.20;;;23.70;55.70;;;;;;6240221;28;20022;-71
2021/08/28 15:24:11;;;;;;;0.30;0.30;;;23.70;55.80;;;;;;6240080;28;20038;-71
2021/08/28 15:27:11;;;;;;;0.20;0.20;;;23.70;55.70;;;;;;6239189;28;20076;-71
2021/08/28 15:30:12;;;;;;;0.22;0.20;;;23.70;55.80;;;;;;6238719;28;20052;-71
2021/08/28 15:33:16;;;;;;;0.20;0.20;;;23.70;55.80;;;;;;6239942;28;20022;-71
2021/08/28 15:36:16;;;;;;;0.30;0.20;;;23.70;55.80;;;;;;6241174;28;20037;-71
2021/08/28 15:39:17;;;;;;;0.20;0.20;;;23.70;55.80;;;;;;6244783;28;20359;-71
2021/08/28 15:42:18;;;;;;;0.52;0.20;;;23.70;55.80;;;;;;6244611;28;20033;-71
2021/08/28 15:45:18;;;;;;;0.20;0.20;;;23.70;55.70;;;;;;6243893;28;20073;-71
2021/08/28 15:48:19;;;;;;;0.20;0.20;;;23.70;56.50;;;;;;6242934;28;20028;-71
2021/08/28 15:51:20;;;;;;;0.20;0.20;;;23.70;55.80;;;;;;6244398;28;20095;-71